createdAt,value
2019-02-05T00:00:37.022Z,44.27
2019-02-05T00:03:06.157Z,42.53
2019-02-05T00:05:34.723Z,43.73
2019-02-05T00:08:03.325Z,42.73
2019-02-05T00:10:31.903Z,42.93
2019-02-05T00:13:00.483Z,47.63
2019-02-05T00:15:29.445Z,47.30
2019-02-05T00:17:58.019Z,48.20
2019-02-05T00:20:26.617Z,43.67
2019-02-05T00:22:55.514Z,46.07
2019-02-05T00:25:24.132Z,48.03
2019-02-05T00:27:52.805Z,48.43
2019-02-05T00:30:21.399Z,42.50
2019-02-05T00:32:50.067Z,42.47
2019-02-05T00:35:18.644Z,43.77
2019-02-05T00:37:47.422Z,52.10
2019-02-05T00:40:16.096Z,43.73
2019-02-05T00:42:44.680Z,48.43
2019-02-05T00:45:13.322Z,47.90
2019-02-05T00:47:42.360Z,43.50
2019-02-05T00:50:11.564Z,47.90
2019-02-05T00:52:40.144Z,39.53
2019-02-05T00:55:09.875Z,43.83
2019-02-05T00:57:38.464Z,46.53
2019-02-05T01:00:12.545Z,38.07
2019-02-05T01:02:41.132Z,38.37
2019-02-05T01:05:10.116Z,37.23
2019-02-05T01:07:38.696Z,44.60
2019-02-05T01:10:07.376Z,47.83
2019-02-05T01:12:36.019Z,38.80
2019-02-05T01:15:06.171Z,40.90
2019-02-05T01:17:34.731Z,44.57
2019-02-05T01:20:03.423Z,44.93
2019-02-05T01:22:32.015Z,42.80
2019-02-05T01:25:00.594Z,48.53
2019-02-05T01:27:29.170Z,49.40
2019-02-05T01:29:57.772Z,40.27
2019-02-05T01:32:26.661Z,47.63
2019-02-05T01:34:55.246Z,43.70
2019-02-05T01:37:23.832Z,44.60
2019-02-05T01:39:52.720Z,46.33
2019-02-05T01:42:21.300Z,45.10
2019-02-05T01:44:49.961Z,46.60
2019-02-05T01:47:18.971Z,42.80
2019-02-05T01:49:49.993Z,45.80
2019-02-05T01:52:18.579Z,44.20
2019-02-05T01:54:48.515Z,40.83
2019-02-05T01:57:29.491Z,41.00
2019-02-05T01:59:58.268Z,42.70
2019-02-05T02:02:26.847Z,37.20
2019-02-05T02:05:14.821Z,43.03
2019-02-05T02:07:43.404Z,44.97
2019-02-05T02:10:14.728Z,47.00
2019-02-05T02:12:43.304Z,47.57
2019-02-05T02:15:11.892Z,41.00
2019-02-05T02:17:40.474Z,44.67
2019-02-05T02:20:10.919Z,44.10
2019-02-05T02:22:39.492Z,42.37
2019-02-05T02:25:08.799Z,35.73
2019-02-05T02:27:37.384Z,37.50
2019-02-05T02:30:09.461Z,42.67
2019-02-05T02:32:38.044Z,37.13
2019-02-05T02:35:06.644Z,39.13
2019-02-05T02:37:35.264Z,35.13
2019-02-05T02:40:04.241Z,34.10
2019-02-05T02:42:32.846Z,38.50
2019-02-05T02:45:01.417Z,40.50
2019-02-05T02:47:30.004Z,35.60
2019-02-05T02:50:17.930Z,49.87
2019-02-05T02:52:47.085Z,51.40
2019-02-05T02:55:15.666Z,35.00
2019-02-05T02:57:44.714Z,41.63
2019-02-05T03:00:15.585Z,36.77
2019-02-05T03:02:44.237Z,39.10
2019-02-05T03:05:14.277Z,39.37
2019-02-05T03:07:43.059Z,39.20
2019-02-05T03:10:23.343Z,55.53
2019-02-05T03:12:52.000Z,48.33
2019-02-05T03:15:20.586Z,42.20
2019-02-05T03:17:49.455Z,49.63
2019-02-05T03:20:18.064Z,47.97
2019-02-05T03:22:46.852Z,47.63
2019-02-05T03:25:17.950Z,47.90
2019-02-05T03:27:46.625Z,51.97
2019-02-05T03:30:17.469Z,46.80
2019-02-05T03:33:05.413Z,49.70
2019-02-05T03:35:34.092Z,42.23
2019-02-05T03:38:02.708Z,40.60
2019-02-05T03:41:11.148Z,51.10
2019-02-05T03:43:40.411Z,49.43
2019-02-05T03:46:12.758Z,43.73
2019-02-05T03:48:41.884Z,47.53
2019-02-05T03:51:35.311Z,52.60
2019-02-05T03:54:13.211Z,46.70
2019-02-05T03:56:56.139Z,56.07
2019-02-05T04:00:21.666Z,46.13
2019-02-05T04:03:53.011Z,57.63
2019-02-05T04:06:39.232Z,45.23
2019-02-05T04:09:43.733Z,47.60
2019-02-05T04:12:34.740Z,50.50
2019-02-05T04:15:51.068Z,46.93
2019-02-05T04:18:49.016Z,45.97
2019-02-05T04:21:42.115Z,57.63
2019-02-05T04:25:01.125Z,61.90
2019-02-05T04:27:49.569Z,60.17
2019-02-05T04:30:47.493Z,53.07
2019-02-05T04:33:30.085Z,53.17
2019-02-05T04:36:17.627Z,54.00
2019-02-05T04:39:21.892Z,64.47
2019-02-05T04:42:24.659Z,55.00
2019-02-05T04:45:06.431Z,66.80
2019-02-05T04:48:18.615Z,54.73
2019-02-05T04:51:10.871Z,52.97
2019-02-05T04:54:12.628Z,62.63
2019-02-05T04:57:06.085Z,50.23
2019-02-05T05:00:13.407Z,60.17
2019-02-05T05:03:12.526Z,65.47
2019-02-05T05:05:50.011Z,58.70
2019-02-05T05:09:05.017Z,78.03
2019-02-05T05:11:34.006Z,72.43
2019-02-05T05:14:02.596Z,64.53
2019-02-05T05:16:31.204Z,65.57
2019-02-05T05:18:59.809Z,65.87
2019-02-05T05:21:28.380Z,61.10
2019-02-05T05:23:57.337Z,64.70
2019-02-05T05:26:25.940Z,67.63
2019-02-05T05:28:54.524Z,70.23
2019-02-05T05:31:23.091Z,71.63
2019-02-05T05:33:51.725Z,72.10
2019-02-05T05:36:20.616Z,83.07
2019-02-05T05:38:49.577Z,78.63
2019-02-05T05:41:18.713Z,60.13
2019-02-05T05:43:49.910Z,90.37
2019-02-05T05:46:18.512Z,77.57
2019-02-05T05:48:49.549Z,59.57
2019-02-05T05:51:18.484Z,56.87
2019-02-05T05:53:47.148Z,55.80
2019-02-05T05:56:16.132Z,74.03
2019-02-05T05:58:44.725Z,62.90
2019-02-05T06:01:13.332Z,70.30
2019-02-05T06:03:42.016Z,54.53
2019-02-05T06:06:10.690Z,89.23
2019-02-05T06:08:39.264Z,61.70
2019-02-05T06:11:07.850Z,54.93
2019-02-05T06:13:36.823Z,75.30
2019-02-05T06:16:05.453Z,62.60
2019-02-05T06:18:34.090Z,57.83
2019-02-05T06:21:02.867Z,60.97
2019-02-05T06:23:31.708Z,59.30
2019-02-05T06:26:00.311Z,66.77
2019-02-05T06:28:34.844Z,70.93
2019-02-05T06:30:59.293Z,50.73
2019-02-05T06:33:27.873Z,75.10
2019-02-05T06:35:56.502Z,61.03
2019-02-05T06:38:25.080Z,70.97
2019-02-05T06:40:53.688Z,66.37
2019-02-05T06:43:22.360Z,66.30
2019-02-05T06:45:50.944Z,60.90
2019-02-05T06:48:20.125Z,87.50
2019-02-05T06:50:48.912Z,60.63
2019-02-05T06:53:17.508Z,59.13
2019-02-05T06:55:46.155Z,63.03
2019-02-05T06:58:14.767Z,53.93
2019-02-05T07:00:43.389Z,51.87
2019-02-05T07:03:11.965Z,72.67
2019-02-05T07:05:40.628Z,78.03
2019-02-05T07:08:09.363Z,67.93
2019-02-05T07:10:38.293Z,77.17
2019-02-05T07:13:07.078Z,61.83
2019-02-05T07:15:35.841Z,73.00
2019-02-05T07:18:04.614Z,70.20
2019-02-05T07:20:41.102Z,60.77
2019-02-05T07:23:09.814Z,72.20
2019-02-05T07:25:38.586Z,49.53
2019-02-05T07:28:07.285Z,59.73
2019-02-05T07:30:35.996Z,60.10
2019-02-05T07:33:04.790Z,56.77
2019-02-05T07:35:33.510Z,55.53
2019-02-05T07:38:02.234Z,75.07
2019-02-05T07:40:30.966Z,69.77
2019-02-05T07:42:59.697Z,77.27
2019-02-05T07:45:28.439Z,73.10
2019-02-05T07:47:57.468Z,62.43
2019-02-05T07:50:26.878Z,85.33
2019-02-05T07:52:55.565Z,57.63
2019-02-05T07:55:24.717Z,64.60
2019-02-05T07:58:12.779Z,52.37
2019-02-05T08:00:41.492Z,66.10
2019-02-05T08:03:10.203Z,75.73
2019-02-05T08:05:38.946Z,59.83
2019-02-05T08:08:07.831Z,74.30
2019-02-05T08:10:36.538Z,56.73
2019-02-05T08:13:05.373Z,67.90
2019-02-05T08:15:34.290Z,70.40
2019-02-05T08:18:02.981Z,68.87
2019-02-05T08:20:31.905Z,60.83
2019-02-05T08:23:00.714Z,75.13
2019-02-05T08:25:29.437Z,82.23
2019-02-05T08:27:58.470Z,73.80
2019-02-05T08:30:29.740Z,73.87
2019-02-05T08:32:58.790Z,73.57
2019-02-05T08:35:27.522Z,75.87
2019-02-05T08:37:56.563Z,61.47
2019-02-05T08:40:25.293Z,61.53
2019-02-05T08:42:54.029Z,68.20
2019-02-05T08:45:24.852Z,75.33
2019-02-05T08:47:53.582Z,79.93
2019-02-05T08:50:27.040Z,68.43
2019-02-05T08:52:54.454Z,67.37
2019-02-05T08:55:23.169Z,76.80
2019-02-05T08:57:52.525Z,67.20
2019-02-05T09:00:26.069Z,81.23
2019-02-05T09:02:54.873Z,63.83
2019-02-05T09:05:23.940Z,83.77
2019-02-05T09:07:52.757Z,79.17
2019-02-05T09:10:23.982Z,92.67
2019-02-05T09:12:52.695Z,65.87
2019-02-05T09:15:29.158Z,56.07
2019-02-05T09:17:51.800Z,70.30
2019-02-05T09:20:20.548Z,67.63
2019-02-05T09:23:08.626Z,65.57
2019-02-05T09:25:37.717Z,56.47
2019-02-05T09:28:06.468Z,49.63
2019-02-05T09:30:35.582Z,70.37
2019-02-05T09:33:07.238Z,50.40
2019-02-05T09:35:35.965Z,49.37
2019-02-05T09:38:04.743Z,50.17
2019-02-05T09:40:33.494Z,53.80
2019-02-05T09:43:02.224Z,72.37
2019-02-05T09:45:31.556Z,74.30
2019-02-05T09:48:00.869Z,67.63
2019-02-05T09:50:30.924Z,45.97
2019-02-05T09:52:59.991Z,48.63
2019-02-05T09:55:28.754Z,57.97
2019-02-05T09:57:57.469Z,47.83
2019-02-05T10:00:31.741Z,61.20
2019-02-05T10:03:00.672Z,42.23
2019-02-05T10:05:30.090Z,57.00
2019-02-05T10:07:58.865Z,68.37
2019-02-05T10:10:27.619Z,43.60
2019-02-05T10:12:56.356Z,56.37
2019-02-05T10:15:27.141Z,61.00
2019-02-05T10:17:55.866Z,48.17
2019-02-05T10:20:24.897Z,43.53
2019-02-05T10:22:53.932Z,47.33
2019-02-05T10:25:22.669Z,42.13
2019-02-05T10:27:51.393Z,44.03
2019-02-05T10:30:43.402Z,44.47
2019-02-05T10:33:12.489Z,55.27
2019-02-05T10:35:41.819Z,46.67
2019-02-05T10:38:10.541Z,55.43
2019-02-05T10:40:39.266Z,65.67
2019-02-05T10:43:08.218Z,66.83
2019-02-05T10:45:37.169Z,59.23
2019-02-05T10:48:07.612Z,61.73
2019-02-05T10:50:36.358Z,55.50
2019-02-05T10:53:05.553Z,60.13
2019-02-05T10:55:34.302Z,67.13
2019-02-05T10:58:03.024Z,47.93
2019-02-05T11:00:31.837Z,62.87
2019-02-05T11:03:02.261Z,63.63
2019-02-05T11:05:31.430Z,58.97
2019-02-05T11:08:00.212Z,61.33
2019-02-05T11:10:28.940Z,50.90
2019-02-05T11:12:57.708Z,57.60
2019-02-05T11:15:28.766Z,52.90
2019-02-05T11:17:57.495Z,47.73
2019-02-05T11:20:27.140Z,43.40
2019-02-05T11:22:55.852Z,57.93
2019-02-05T11:25:24.594Z,44.33
2019-02-05T11:27:53.322Z,48.10
2019-02-05T11:30:30.809Z,49.43
2019-02-05T11:32:59.937Z,54.13
2019-02-05T11:35:29.443Z,53.63
2019-02-05T11:37:58.230Z,41.63
2019-02-05T11:40:46.347Z,50.23
2019-02-05T11:43:15.071Z,44.57
2019-02-05T11:45:43.778Z,46.83
2019-02-05T11:48:15.572Z,40.70
2019-02-05T11:50:44.281Z,40.50
2019-02-05T11:53:12.983Z,39.80
2019-02-05T11:55:41.772Z,62.00
2019-02-05T11:58:10.581Z,43.00
2019-02-05T12:00:49.686Z,42.00
2019-02-05T12:03:18.806Z,59.80
2019-02-05T12:05:47.976Z,39.87
2019-02-05T12:08:18.682Z,42.23
2019-02-05T12:10:48.167Z,36.53
2019-02-05T12:13:16.941Z,38.83
2019-02-05T12:15:45.683Z,48.90
2019-02-05T12:18:14.411Z,43.33
2019-02-05T12:20:43.423Z,37.87
2019-02-05T12:23:12.134Z,44.13
2019-02-05T12:25:40.890Z,34.47
2019-02-05T12:28:09.605Z,55.27
2019-02-05T12:30:44.940Z,43.13
2019-02-05T12:33:08.750Z,39.47
2019-02-05T12:35:37.474Z,44.67
2019-02-05T12:38:06.586Z,41.53
2019-02-05T12:40:35.370Z,36.70
2019-02-05T12:43:04.431Z,44.53
2019-02-05T12:45:33.254Z,44.50
2019-02-05T12:48:02.325Z,35.93
2019-02-05T12:50:32.611Z,38.37
2019-02-05T12:53:01.634Z,41.63
2019-02-05T12:55:49.913Z,34.93
2019-02-05T12:58:18.986Z,35.13
2019-02-05T13:00:58.039Z,33.73
2019-02-05T13:03:20.815Z,43.70
2019-02-05T13:05:52.578Z,30.30
2019-02-05T13:08:21.211Z,36.03
2019-02-05T13:10:51.734Z,33.83
2019-02-05T13:13:20.399Z,37.50
2019-02-05T13:15:49.443Z,36.83
2019-02-05T13:18:18.269Z,36.63
2019-02-05T13:20:47.104Z,31.07
2019-02-05T13:23:15.824Z,50.47
2019-02-05T13:25:44.539Z,45.77
2019-02-05T13:28:14.262Z,37.20
2019-02-05T13:30:43.054Z,34.10
2019-02-05T13:33:13.421Z,33.10
2019-02-05T13:35:42.109Z,36.27
2019-02-05T13:38:10.799Z,31.87
2019-02-05T13:40:39.513Z,38.20
2019-02-05T13:43:08.283Z,30.83
2019-02-05T13:45:37.130Z,33.17
2019-02-05T13:48:06.589Z,39.47
2019-02-05T13:50:35.259Z,34.90
2019-02-05T13:53:03.991Z,37.37
2019-02-05T13:55:43.593Z,36.37
2019-02-05T13:58:13.165Z,34.33
2019-02-05T14:00:47.779Z,38.83
2019-02-05T14:03:16.517Z,36.63
2019-02-05T14:05:45.260Z,34.30
2019-02-05T14:08:14.306Z,31.57
2019-02-05T14:10:43.147Z,32.53
2019-02-05T14:13:11.889Z,33.17
2019-02-05T14:15:41.563Z,36.93
2019-02-05T14:18:10.463Z,33.67
2019-02-05T14:20:39.484Z,25.57
2019-02-05T14:23:08.187Z,31.20
2019-02-05T14:25:36.927Z,30.00
2019-02-05T14:28:05.964Z,36.93
2019-02-05T14:30:37.107Z,38.00
2019-02-05T14:33:06.210Z,31.40
2019-02-05T14:35:34.944Z,34.00
2019-02-05T14:38:03.611Z,34.80
2019-02-05T14:40:32.297Z,30.63
2019-02-05T14:43:01.693Z,40.10
2019-02-05T14:45:30.418Z,36.27
2019-02-05T14:47:59.457Z,41.53
2019-02-05T14:50:29.799Z,39.50
2019-02-05T14:52:58.810Z,43.63
2019-02-05T14:55:27.600Z,39.40
2019-02-05T14:57:56.299Z,38.77
2019-02-05T15:00:32.795Z,41.97
2019-02-05T15:03:02.313Z,44.23
2019-02-05T15:05:31.246Z,43.73
2019-02-05T15:08:00.041Z,48.10
2019-02-05T15:10:28.716Z,43.20
2019-02-05T15:12:57.784Z,47.47
2019-02-05T15:15:26.495Z,43.53
2019-02-05T15:17:55.142Z,42.73
2019-02-05T15:20:29.535Z,47.17
2019-02-05T15:22:58.246Z,43.27
2019-02-05T15:25:26.887Z,42.47
2019-02-05T15:27:55.594Z,42.20
2019-02-05T15:30:30.760Z,43.53
2019-02-05T15:33:22.445Z,43.07
2019-02-05T15:35:57.490Z,46.70
2019-02-05T15:38:26.393Z,44.93
2019-02-05T15:40:55.108Z,46.70
2019-02-05T15:43:23.830Z,43.30
2019-02-05T15:45:52.581Z,36.93
2019-02-05T15:48:21.213Z,42.77
2019-02-05T15:50:49.915Z,39.63
2019-02-05T15:53:18.602Z,44.77
2019-02-05T15:55:48.891Z,40.63
2019-02-05T15:58:17.718Z,38.43
2019-02-05T16:00:46.438Z,41.33
2019-02-05T16:03:15.482Z,38.13
2019-02-05T16:05:44.192Z,37.57
2019-02-05T16:08:12.967Z,44.53
2019-02-05T16:10:42.046Z,41.80
2019-02-05T16:13:10.746Z,38.10
2019-02-05T16:15:39.454Z,40.70
2019-02-05T16:18:08.167Z,41.43
2019-02-05T16:20:36.998Z,42.13
2019-02-05T16:23:05.698Z,42.43
2019-02-05T16:25:34.796Z,41.97
2019-02-05T16:28:03.870Z,43.43
2019-02-05T16:30:32.598Z,42.07
2019-02-05T16:33:20.629Z,41.70
2019-02-05T16:35:51.970Z,42.10
2019-02-05T16:38:20.882Z,42.83
2019-02-05T16:40:50.227Z,38.67
2019-02-05T16:43:18.946Z,41.67
2019-02-05T16:45:48.007Z,40.77
2019-02-05T16:48:16.726Z,39.90
2019-02-05T16:50:46.291Z,41.07
2019-02-05T16:53:15.383Z,42.70
2019-02-05T16:55:44.408Z,40.83
2019-02-05T16:58:13.127Z,39.87
2019-02-05T17:00:41.892Z,45.80
2019-02-05T17:03:10.606Z,41.27
2019-02-05T17:05:39.790Z,44.03
2019-02-05T17:08:08.985Z,43.90
2019-02-05T17:10:37.697Z,50.50
2019-02-05T17:13:06.429Z,43.93
2019-02-05T17:15:35.167Z,47.70
2019-02-05T17:18:03.867Z,47.93
2019-02-05T17:20:32.946Z,51.43
2019-02-05T17:23:01.646Z,43.93
2019-02-05T17:25:49.915Z,44.47
2019-02-05T17:28:18.623Z,42.20
2019-02-05T17:30:47.535Z,45.07
2019-02-05T17:33:16.241Z,39.27
2019-02-05T17:35:45.241Z,41.83
2019-02-05T17:38:13.950Z,43.40
2019-02-05T17:40:42.697Z,40.93
2019-02-05T17:43:11.366Z,39.77
2019-02-05T17:45:40.930Z,40.57
2019-02-05T17:48:14.847Z,38.03
2019-02-05T17:50:43.872Z,40.40
2019-02-05T17:53:12.578Z,45.67
2019-02-05T17:55:41.266Z,41.07
2019-02-05T17:58:09.992Z,44.83
2019-02-05T18:01:00.794Z,44.03
2019-02-05T18:03:29.431Z,45.67
2019-02-05T18:05:58.162Z,39.27
2019-02-05T18:08:26.816Z,44.13
2019-02-05T18:10:55.536Z,42.43
2019-02-05T18:13:24.243Z,41.80
2019-02-05T18:15:52.959Z,49.60
2019-02-05T18:18:21.689Z,45.87
2019-02-05T18:20:50.451Z,50.57
2019-02-05T18:23:19.215Z,46.83
2019-02-05T18:25:48.183Z,47.90
2019-02-05T18:28:16.969Z,40.60
2019-02-05T18:30:45.714Z,42.20
2019-02-05T18:33:14.622Z,42.50
2019-02-05T18:35:43.386Z,44.60
2019-02-05T18:38:14.043Z,43.27
2019-02-05T18:40:42.781Z,43.33
2019-02-05T18:43:11.553Z,38.77
2019-02-05T18:45:40.317Z,37.93
2019-02-05T18:48:09.350Z,46.67
2019-02-05T18:50:38.072Z,43.77
2019-02-05T18:53:06.820Z,36.67
2019-02-05T18:55:36.230Z,35.10
2019-02-05T18:58:09.540Z,34.87
2019-02-05T19:00:38.741Z,35.70
2019-02-05T19:03:14.839Z,34.43
2019-02-05T19:05:38.406Z,39.67
2019-02-05T19:08:07.458Z,36.03
2019-02-05T19:10:36.379Z,37.87
2019-02-05T19:13:05.204Z,34.27
2019-02-05T19:15:39.806Z,36.70
2019-02-05T19:18:12.290Z,34.77
2019-02-05T19:20:50.156Z,32.07
2019-02-05T19:23:18.907Z,32.60
2019-02-05T19:26:05.253Z,41.70
2019-02-05T19:28:36.382Z,31.83
2019-02-05T19:31:24.475Z,32.77
2019-02-05T19:33:53.208Z,30.97
2019-02-05T19:36:22.012Z,33.60
2019-02-05T19:38:50.731Z,35.13
2019-02-05T19:41:19.712Z,30.87
2019-02-05T19:43:48.695Z,35.63
2019-02-05T19:46:25.399Z,33.67
2019-02-05T19:48:57.951Z,28.73
2019-02-05T19:51:26.965Z,28.60
2019-02-05T19:53:55.789Z,26.93
2019-02-05T19:56:24.491Z,27.53
2019-02-05T19:58:53.191Z,27.07
2019-02-05T20:01:21.898Z,26.77
2019-02-05T20:03:50.530Z,26.67
2019-02-05T20:06:19.286Z,27.80
2019-02-05T20:08:48.154Z,26.17
2019-02-05T20:11:17.160Z,23.60
2019-02-05T20:13:45.882Z,25.40
2019-02-05T20:16:14.578Z,23.53
2019-02-05T20:18:43.210Z,24.33
2019-02-05T20:21:11.912Z,21.63
2019-02-05T20:23:40.590Z,20.93
2019-02-05T20:26:09.337Z,21.83
2019-02-05T20:28:38.255Z,23.50
2019-02-05T20:31:07.011Z,21.53
2019-02-05T20:33:35.646Z,23.37
2019-02-05T20:36:04.438Z,21.27
2019-02-05T20:38:33.300Z,22.73
2019-02-05T20:41:02.021Z,22.27
2019-02-05T20:43:30.718Z,23.17
2019-02-05T20:46:00.018Z,23.73
2019-02-05T20:48:29.791Z,23.77
2019-02-05T20:51:00.973Z,23.10
2019-02-05T20:53:29.056Z,19.90
2019-02-05T20:55:57.755Z,18.67
2019-02-05T20:58:26.466Z,18.40
2019-02-05T21:00:55.166Z,18.37
2019-02-05T21:03:24.115Z,19.37
2019-02-05T21:05:52.816Z,19.87
2019-02-05T21:08:21.547Z,19.17
2019-02-05T21:10:53.895Z,17.17
2019-02-05T21:13:22.693Z,18.47
2019-02-05T21:15:51.417Z,18.17
2019-02-05T21:18:20.527Z,17.53
2019-02-05T21:20:49.586Z,18.67
2019-02-05T21:23:18.327Z,16.50
2019-02-05T21:25:47.114Z,16.03
2019-02-05T21:28:15.830Z,15.40
2019-02-05T21:30:44.559Z,18.10
2019-02-05T21:33:13.207Z,16.77
2019-02-05T21:35:42.543Z,15.70
2019-02-05T21:38:11.266Z,15.87
2019-02-05T21:40:39.899Z,15.13
2019-02-05T21:43:08.619Z,15.17
2019-02-05T21:45:37.344Z,15.53
2019-02-05T21:48:06.078Z,14.27
2019-02-05T21:50:34.798Z,14.50
2019-02-05T21:53:03.582Z,14.90
2019-02-05T21:55:32.317Z,15.07
2019-02-05T21:58:01.041Z,15.37
2019-02-05T22:00:31.109Z,15.33
2019-02-05T22:02:59.866Z,15.13
2019-02-05T22:05:28.591Z,15.80
2019-02-05T22:07:57.307Z,14.63
2019-02-05T22:10:26.028Z,17.17
2019-02-05T22:12:54.761Z,15.10
2019-02-05T22:15:23.740Z,15.20
2019-02-05T22:17:52.459Z,16.23
2019-02-05T22:20:22.982Z,15.90
2019-02-05T22:22:51.711Z,15.37
2019-02-05T22:25:25.155Z,16.03
2019-02-05T22:27:53.863Z,15.47
2019-02-05T22:30:24.505Z,13.57
2019-02-05T22:32:53.219Z,13.67
2019-02-05T22:35:22.023Z,13.77
2019-02-05T22:37:51.054Z,12.63
2019-02-05T22:40:21.177Z,12.20
2019-02-05T22:42:49.986Z,13.03
2019-02-05T22:45:19.433Z,12.40
2019-02-05T22:47:48.182Z,13.17
2019-02-05T22:50:22.625Z,13.10
2019-02-05T22:52:51.350Z,13.87
2019-02-05T22:55:20.067Z,12.13
2019-02-05T22:57:50.133Z,12.07
2019-02-05T23:00:40.571Z,13.17
2019-02-05T23:03:09.598Z,12.77
2019-02-05T23:06:21.571Z,12.43
2019-02-05T23:08:50.705Z,12.17
2019-02-05T23:11:38.715Z,11.67
2019-02-05T23:14:07.490Z,12.20
2019-02-05T23:16:36.321Z,12.97
2019-02-05T23:19:05.221Z,13.00
2019-02-05T23:21:33.986Z,12.07
2019-02-05T23:24:02.623Z,12.17
2019-02-05T23:26:31.238Z,12.00
2019-02-05T23:28:59.881Z,11.80
2019-02-05T23:31:28.504Z,13.73
2019-02-05T23:33:57.526Z,12.27
2019-02-05T23:36:26.123Z,13.80
2019-02-05T23:38:54.992Z,12.63
2019-02-05T23:41:24.006Z,12.67
2019-02-05T23:43:52.568Z,13.53
2019-02-05T23:46:21.170Z,12.17
2019-02-05T23:48:49.764Z,14.53
2019-02-05T23:51:18.529Z,14.20
2019-02-05T23:53:47.183Z,13.67
2019-02-05T23:56:25.424Z,13.70
2019-02-05T23:58:46.193Z,14.13
